sensor_id;sensor_type;location;lat;lon;timestamp;P1;durP1;ratioP1;P2;durP2;ratioP2
3700;SDS011;1866;48.374;10.766;2023-04-27T00:01:08;108.57;;;6.97;;
3700;SDS011;1866;48.374;10.766;2023-04-27T00:03:36;97.73;;;6.33;;
3700;SDS011;1866;48.374;10.766;2023-04-27T00:06:03;99.57;;;6.50;;
3700;SDS011;1866;48.374;10.766;2023-04-27T00:08:31;99.40;;;6.73;;
3700;SDS011;1866;48.374;10.766;2023-04-27T00:10:59;98.87;;;6.47;;
3700;SDS011;1866;48.374;10.766;2023-04-27T00:13:26;107.73;;;7.20;;
3700;SDS011;1866;48.374;10.766;2023-04-27T00:15:54;97.90;;;6.30;;
3700;SDS011;1866;48.374;10.766;2023-04-27T00:18:20;99.57;;;5.93;;
3700;SDS011;1866;48.374;10.766;2023-04-27T00:20:47;100.90;;;7.07;;
3700;SDS011;1866;48.374;10.766;2023-04-27T00:23:14;104.10;;;6.60;;
3700;SDS011;1866;48.374;10.766;2023-04-27T00:25:42;97.20;;;6.30;;
3700;SDS011;1866;48.374;10.766;2023-04-27T00:28:09;98.10;;;6.50;;
3700;SDS011;1866;48.374;10.766;2023-04-27T00:30:36;97.60;;;6.23;;
3700;SDS011;1866;48.374;10.766;2023-04-27T00:33:03;98.57;;;6.47;;
3700;SDS011;1866;48.374;10.766;2023-04-27T00:35:31;97.50;;;6.60;;
3700;SDS011;1866;48.374;10.766;2023-04-27T00:37:58;97.07;;;6.00;;
3700;SDS011;1866;48.374;10.766;2023-04-27T00:40:24;100.50;;;7.20;;
3700;SDS011;1866;48.374;10.766;2023-04-27T00:42:53;97.30;;;6.77;;
3700;SDS011;1866;48.374;10.766;2023-04-27T00:45:20;98.90;;;6.73;;
3700;SDS011;1866;48.374;10.766;2023-04-27T00:47:47;99.87;;;7.20;;
3700;SDS011;1866;48.374;10.766;2023-04-27T00:50:14;97.47;;;6.20;;
3700;SDS011;1866;48.374;10.766;2023-04-27T00:52:41;99.60;;;6.80;;
3700;SDS011;1866;48.374;10.766;2023-04-27T00:55:09;99.40;;;6.33;;
3700;SDS011;1866;48.374;10.766;2023-04-27T00:57:36;99.67;;;6.50;;
3700;SDS011;1866;48.374;10.766;2023-04-27T01:00:06;98.10;;;6.80;;
3700;SDS011;1866;48.374;10.766;2023-04-27T01:02:34;98.70;;;6.40;;
3700;SDS011;1866;48.374;10.766;2023-04-27T01:05:02;98.10;;;7.00;;
3700;SDS011;1866;48.374;10.766;2023-04-27T01:07:29;97.97;;;6.80;;
3700;SDS011;1866;48.374;10.766;2023-04-27T01:09:56;96.87;;;6.70;;
3700;SDS011;1866;48.374;10.766;2023-04-27T01:12:23;96.27;;;6.20;;
3700;SDS011;1866;48.374;10.766;2023-04-27T01:14:50;98.37;;;7.03;;
3700;SDS011;1866;48.374;10.766;2023-04-27T01:17:18;97.17;;;6.37;;
3700;SDS011;1866;48.374;10.766;2023-04-27T01:19:46;97.50;;;6.47;;
3700;SDS011;1866;48.374;10.766;2023-04-27T01:22:13;98.07;;;6.93;;
3700;SDS011;1866;48.374;10.766;2023-04-27T01:24:42;96.90;;;6.80;;
3700;SDS011;1866;48.374;10.766;2023-04-27T01:27:09;98.70;;;7.10;;
3700;SDS011;1866;48.374;10.766;2023-04-27T01:29:35;99.57;;;6.70;;
3700;SDS011;1866;48.374;10.766;2023-04-27T01:32:02;97.30;;;6.67;;
3700;SDS011;1866;48.374;10.766;2023-04-27T01:34:29;98.07;;;6.70;;
3700;SDS011;1866;48.374;10.766;2023-04-27T01:36:56;97.53;;;6.00;;
3700;SDS011;1866;48.374;10.766;2023-04-27T01:39:23;96.80;;;6.43;;
3700;SDS011;1866;48.374;10.766;2023-04-27T01:41:51;97.37;;;6.83;;
3700;SDS011;1866;48.374;10.766;2023-04-27T01:44:18;98.03;;;6.57;;
3700;SDS011;1866;48.374;10.766;2023-04-27T01:46:47;97.33;;;6.83;;
3700;SDS011;1866;48.374;10.766;2023-04-27T01:49:13;96.50;;;6.47;;
3700;SDS011;1866;48.374;10.766;2023-04-27T01:51:40;97.70;;;7.27;;
3700;SDS011;1866;48.374;10.766;2023-04-27T01:54:07;98.78;;;6.80;;
3700;SDS011;1866;48.374;10.766;2023-04-27T01:56:34;99.53;;;6.90;;
3700;SDS011;1866;48.374;10.766;2023-04-27T01:59:02;96.97;;;6.60;;
3700;SDS011;1866;48.374;10.766;2023-04-27T02:01:29;97.63;;;6.47;;
3700;SDS011;1866;48.374;10.766;2023-04-27T02:03:56;103.60;;;7.13;;
3700;SDS011;1866;48.374;10.766;2023-04-27T02:06:22;97.30;;;6.77;;
3700;SDS011;1866;48.374;10.766;2023-04-27T02:08:49;99.10;;;6.40;;
3700;SDS011;1866;48.374;10.766;2023-04-27T02:11:16;97.50;;;6.70;;
3700;SDS011;1866;48.374;10.766;2023-04-27T02:13:43;99.82;;;7.57;;
3700;SDS011;1866;48.374;10.766;2023-04-27T02:16:11;97.50;;;7.17;;
3700;SDS011;1866;48.374;10.766;2023-04-27T02:18:38;100.80;;;7.40;;
3700;SDS011;1866;48.374;10.766;2023-04-27T02:21:07;99.65;;;6.90;;
3700;SDS011;1866;48.374;10.766;2023-04-27T02:23:34;98.13;;;6.82;;
3700;SDS011;1866;48.374;10.766;2023-04-27T02:26:01;99.38;;;6.80;;
3700;SDS011;1866;48.374;10.766;2023-04-27T02:28:28;98.18;;;6.85;;
3700;SDS011;1866;48.374;10.766;2023-04-27T02:30:55;98.30;;;6.75;;
3700;SDS011;1866;48.374;10.766;2023-04-27T02:33:23;97.85;;;6.60;;
3700;SDS011;1866;48.374;10.766;2023-04-27T02:35:50;98.17;;;7.00;;
3700;SDS011;1866;48.374;10.766;2023-04-27T02:38:16;98.13;;;6.70;;
3700;SDS011;1866;48.374;10.766;2023-04-27T02:40:43;100.07;;;7.10;;
3700;SDS011;1866;48.374;10.766;2023-04-27T02:43:10;98.05;;;6.38;;
3700;SDS011;1866;48.374;10.766;2023-04-27T02:45:37;109.18;;;6.85;;
3700;SDS011;1866;48.374;10.766;2023-04-27T02:48:04;102.43;;;7.60;;
3700;SDS011;1866;48.374;10.766;2023-04-27T02:50:32;98.57;;;6.78;;
3700;SDS011;1866;48.374;10.766;2023-04-27T02:52:59;97.65;;;6.90;;
3700;SDS011;1866;48.374;10.766;2023-04-27T02:55:26;100.43;;;6.53;;
3700;SDS011;1866;48.374;10.766;2023-04-27T02:57:53;99.25;;;7.25;;
3700;SDS011;1866;48.374;10.766;2023-04-27T03:00:20;102.28;;;7.63;;
3700;SDS011;1866;48.374;10.766;2023-04-27T03:02:47;97.88;;;6.90;;
3700;SDS011;1866;48.374;10.766;2023-04-27T03:05:15;98.45;;;6.60;;
3700;SDS011;1866;48.374;10.766;2023-04-27T03:07:43;103.38;;;7.20;;
3700;SDS011;1866;48.374;10.766;2023-04-27T03:10:10;101.78;;;7.50;;
3700;SDS011;1866;48.374;10.766;2023-04-27T03:12:37;101.05;;;7.70;;
3700;SDS011;1866;48.374;10.766;2023-04-27T03:15:04;98.53;;;7.40;;
3700;SDS011;1866;48.374;10.766;2023-04-27T03:17:31;98.85;;;7.22;;
3700;SDS011;1866;48.374;10.766;2023-04-27T03:19:58;98.88;;;7.35;;
3700;SDS011;1866;48.374;10.766;2023-04-27T03:22:25;99.15;;;6.85;;
3700;SDS011;1866;48.374;10.766;2023-04-27T03:24:53;98.85;;;7.30;;
3700;SDS011;1866;48.374;10.766;2023-04-27T03:27:20;102.78;;;7.32;;
3700;SDS011;1866;48.374;10.766;2023-04-27T03:29:49;98.03;;;6.75;;
3700;SDS011;1866;48.374;10.766;2023-04-27T03:32:17;99.18;;;7.15;;
3700;SDS011;1866;48.374;10.766;2023-04-27T03:34:44;100.57;;;7.05;;
3700;SDS011;1866;48.374;10.766;2023-04-27T03:37:11;97.38;;;6.90;;
3700;SDS011;1866;48.374;10.766;2023-04-27T03:39:38;98.80;;;7.65;;
3700;SDS011;1866;48.374;10.766;2023-04-27T03:42:07;99.82;;;7.32;;
3700;SDS011;1866;48.374;10.766;2023-04-27T03:44:33;98.40;;;7.10;;
3700;SDS011;1866;48.374;10.766;2023-04-27T03:47:00;98.55;;;7.15;;
3700;SDS011;1866;48.374;10.766;2023-04-27T03:49:27;98.72;;;7.20;;
3700;SDS011;1866;48.374;10.766;2023-04-27T03:51:54;97.68;;;7.45;;
3700;SDS011;1866;48.374;10.766;2023-04-27T03:54:21;100.65;;;7.45;;
3700;SDS011;1866;48.374;10.766;2023-04-27T03:56:48;100.18;;;7.47;;
3700;SDS011;1866;48.374;10.766;2023-04-27T03:59:17;99.07;;;7.78;;
3700;SDS011;1866;48.374;10.766;2023-04-27T04:01:44;98.95;;;6.97;;
3700;SDS011;1866;48.374;10.766;2023-04-27T04:04:11;98.55;;;7.05;;
3700;SDS011;1866;48.374;10.766;2023-04-27T04:06:38;99.63;;;6.90;;
3700;SDS011;1866;48.374;10.766;2023-04-27T04:09:05;119.93;;;7.57;;
3700;SDS011;1866;48.374;10.766;2023-04-27T04:11:32;97.70;;;6.60;;
3700;SDS011;1866;48.374;10.766;2023-04-27T04:13:59;98.45;;;7.15;;
3700;SDS011;1866;48.374;10.766;2023-04-27T04:16:27;98.95;;;7.70;;
3700;SDS011;1866;48.374;10.766;2023-04-27T04:18:53;99.55;;;7.97;;
3700;SDS011;1866;48.374;10.766;2023-04-27T04:21:20;99.18;;;7.57;;
3700;SDS011;1866;48.374;10.766;2023-04-27T04:23:47;98.60;;;7.15;;
3700;SDS011;1866;48.374;10.766;2023-04-27T04:26:14;98.88;;;7.30;;
3700;SDS011;1866;48.374;10.766;2023-04-27T04:28:41;103.90;;;8.45;;
3700;SDS011;1866;48.374;10.766;2023-04-27T04:31:08;104.18;;;7.65;;
3700;SDS011;1866;48.374;10.766;2023-04-27T04:33:36;100.68;;;7.53;;
3700;SDS011;1866;48.374;10.766;2023-04-27T04:36:03;99.70;;;7.60;;
3700;SDS011;1866;48.374;10.766;2023-04-27T04:38:31;100.28;;;7.65;;
3700;SDS011;1866;48.374;10.766;2023-04-27T04:40:58;105.47;;;9.00;;
3700;SDS011;1866;48.374;10.766;2023-04-27T04:43:25;102.22;;;7.90;;
3700;SDS011;1866;48.374;10.766;2023-04-27T04:45:52;99.35;;;7.40;;
3700;SDS011;1866;48.374;10.766;2023-04-27T04:48:19;100.65;;;8.40;;
3700;SDS011;1866;48.374;10.766;2023-04-27T04:50:48;99.55;;;7.82;;
3700;SDS011;1866;48.374;10.766;2023-04-27T04:53:14;104.47;;;8.15;;
3700;SDS011;1866;48.374;10.766;2023-04-27T04:55:41;102.63;;;7.80;;
3700;SDS011;1866;48.374;10.766;2023-04-27T04:58:08;100.18;;;7.40;;
3700;SDS011;1866;48.374;10.766;2023-04-27T05:00:35;99.13;;;7.30;;
3700;SDS011;1866;48.374;10.766;2023-04-27T05:03:02;104.03;;;8.60;;
3700;SDS011;1866;48.374;10.766;2023-04-27T05:05:30;102.05;;;7.93;;
3700;SDS011;1866;48.374;10.766;2023-04-27T05:07:59;99.40;;;7.45;;
3700;SDS011;1866;48.374;10.766;2023-04-27T05:10:26;100.07;;;7.38;;
3700;SDS011;1866;48.374;10.766;2023-04-27T05:12:53;98.47;;;7.57;;
3700;SDS011;1866;48.374;10.766;2023-04-27T05:15:20;102.40;;;8.35;;
3700;SDS011;1866;48.374;10.766;2023-04-27T05:17:46;98.93;;;7.63;;
3700;SDS011;1866;48.374;10.766;2023-04-27T05:20:13;99.23;;;7.30;;
3700;SDS011;1866;48.374;10.766;2023-04-27T05:22:40;99.50;;;7.63;;
3700;SDS011;1866;48.374;10.766;2023-04-27T05:25:09;100.13;;;8.30;;
3700;SDS011;1866;48.374;10.766;2023-04-27T05:27:36;101.50;;;8.03;;
3700;SDS011;1866;48.374;10.766;2023-04-27T05:30:03;101.77;;;7.90;;
3700;SDS011;1866;48.374;10.766;2023-04-27T05:32:30;100.32;;;7.63;;
3700;SDS011;1866;48.374;10.766;2023-04-27T05:34:57;100.07;;;7.80;;
3700;SDS011;1866;48.374;10.766;2023-04-27T05:37:24;100.77;;;7.83;;
3700;SDS011;1866;48.374;10.766;2023-04-27T05:39:51;100.87;;;8.20;;
3700;SDS011;1866;48.374;10.766;2023-04-27T05:42:19;114.27;;;13.47;;
3700;SDS011;1866;48.374;10.766;2023-04-27T05:44:46;101.37;;;7.67;;
3700;SDS011;1866;48.374;10.766;2023-04-27T05:47:13;103.97;;;8.40;;
3700;SDS011;1866;48.374;10.766;2023-04-27T05:49:40;102.50;;;7.50;;
3700;SDS011;1866;48.374;10.766;2023-04-27T05:52:07;106.43;;;7.90;;
3700;SDS011;1866;48.374;10.766;2023-04-27T05:54:34;100.47;;;7.50;;
3700;SDS011;1866;48.374;10.766;2023-04-27T05:57:00;99.90;;;7.67;;
3700;SDS011;1866;48.374;10.766;2023-04-27T05:59:29;99.33;;;7.67;;
3700;SDS011;1866;48.374;10.766;2023-04-27T06:01:55;99.50;;;7.37;;
3700;SDS011;1866;48.374;10.766;2023-04-27T06:04:22;99.27;;;7.40;;
3700;SDS011;1866;48.374;10.766;2023-04-27T06:06:49;100.53;;;7.50;;
3700;SDS011;1866;48.374;10.766;2023-04-27T06:09:16;100.77;;;8.33;;
3700;SDS011;1866;48.374;10.766;2023-04-27T06:11:43;106.03;;;8.60;;
3700;SDS011;1866;48.374;10.766;2023-04-27T06:14:11;101.47;;;8.13;;
3700;SDS011;1866;48.374;10.766;2023-04-27T06:16:39;103.70;;;8.10;;
3700;SDS011;1866;48.374;10.766;2023-04-27T06:19:06;103.37;;;7.77;;
3700;SDS011;1866;48.374;10.766;2023-04-27T06:21:33;101.70;;;8.57;;
3700;SDS011;1866;48.374;10.766;2023-04-27T06:24:01;103.87;;;8.87;;
3700;SDS011;1866;48.374;10.766;2023-04-27T06:26:27;102.07;;;7.73;;
3700;SDS011;1866;48.374;10.766;2023-04-27T06:28:54;103.00;;;8.27;;
3700;SDS011;1866;48.374;10.766;2023-04-27T06:31:21;105.77;;;8.60;;
3700;SDS011;1866;48.374;10.766;2023-04-27T06:33:49;108.37;;;7.97;;
3700;SDS011;1866;48.374;10.766;2023-04-27T06:36:16;103.27;;;8.17;;
3700;SDS011;1866;48.374;10.766;2023-04-27T06:38:43;101.20;;;9.03;;
3700;SDS011;1866;48.374;10.766;2023-04-27T06:41:10;114.50;;;9.13;;
3700;SDS011;1866;48.374;10.766;2023-04-27T06:43:37;104.87;;;8.63;;
3700;SDS011;1866;48.374;10.766;2023-04-27T06:46:04;106.17;;;8.37;;
3700;SDS011;1866;48.374;10.766;2023-04-27T06:48:31;101.77;;;7.90;;
3700;SDS011;1866;48.374;10.766;2023-04-27T06:50:59;102.30;;;8.03;;
3700;SDS011;1866;48.374;10.766;2023-04-27T06:53:26;104.37;;;8.47;;
3700;SDS011;1866;48.374;10.766;2023-04-27T06:55:53;109.13;;;8.60;;
3700;SDS011;1866;48.374;10.766;2023-04-27T06:58:20;105.33;;;8.40;;
3700;SDS011;1866;48.374;10.766;2023-04-27T07:00:47;106.10;;;8.60;;
3700;SDS011;1866;48.374;10.766;2023-04-27T07:03:14;103.10;;;8.43;;
3700;SDS011;1866;48.374;10.766;2023-04-27T07:05:41;103.20;;;7.70;;
3700;SDS011;1866;48.374;10.766;2023-04-27T07:08:09;105.37;;;7.90;;
3700;SDS011;1866;48.374;10.766;2023-04-27T07:10:36;104.30;;;8.43;;
3700;SDS011;1866;48.374;10.766;2023-04-27T07:13:03;106.47;;;8.80;;
3700;SDS011;1866;48.374;10.766;2023-04-27T07:15:30;101.70;;;7.80;;
3700;SDS011;1866;48.374;10.766;2023-04-27T07:17:57;101.97;;;8.33;;
3700;SDS011;1866;48.374;10.766;2023-04-27T07:20:25;104.37;;;8.63;;
3700;SDS011;1866;48.374;10.766;2023-04-27T07:22:52;104.13;;;9.07;;
3700;SDS011;1866;48.374;10.766;2023-04-27T07:25:20;100.83;;;7.40;;
3700;SDS011;1866;48.374;10.766;2023-04-27T07:27:47;105.60;;;8.70;;
3700;SDS011;1866;48.374;10.766;2023-04-27T07:30:15;102.77;;;8.77;;
3700;SDS011;1866;48.374;10.766;2023-04-27T07:32:42;102.13;;;7.97;;
3700;SDS011;1866;48.374;10.766;2023-04-27T07:35:09;105.40;;;9.57;;
3700;SDS011;1866;48.374;10.766;2023-04-27T07:37:37;103.10;;;8.20;;
3700;SDS011;1866;48.374;10.766;2023-04-27T07:40:04;104.10;;;8.67;;
3700;SDS011;1866;48.374;10.766;2023-04-27T07:42:41;101.90;;;7.83;;
3700;SDS011;1866;48.374;10.766;2023-04-27T07:45:08;137.43;;;8.97;;
3700;SDS011;1866;48.374;10.766;2023-04-27T07:47:35;108.43;;;7.97;;
3700;SDS011;1866;48.374;10.766;2023-04-27T07:50:03;106.00;;;7.90;;
3700;SDS011;1866;48.374;10.766;2023-04-27T07:52:31;105.17;;;8.10;;
3700;SDS011;1866;48.374;10.766;2023-04-27T07:54:58;103.17;;;8.10;;
3700;SDS011;1866;48.374;10.766;2023-04-27T07:57:25;103.50;;;7.50;;
3700;SDS011;1866;48.374;10.766;2023-04-27T07:59:53;102.57;;;7.10;;
3700;SDS011;1866;48.374;10.766;2023-04-27T08:02:20;102.50;;;7.20;;
3700;SDS011;1866;48.374;10.766;2023-04-27T08:04:47;103.80;;;8.20;;
3700;SDS011;1866;48.374;10.766;2023-04-27T08:07:15;109.97;;;7.83;;
3700;SDS011;1866;48.374;10.766;2023-04-27T08:09:42;104.30;;;7.83;;
3700;SDS011;1866;48.374;10.766;2023-04-27T08:12:09;104.20;;;7.97;;
3700;SDS011;1866;48.374;10.766;2023-04-27T08:14:36;102.53;;;7.80;;
3700;SDS011;1866;48.374;10.766;2023-04-27T08:17:04;102.27;;;7.80;;
3700;SDS011;1866;48.374;10.766;2023-04-27T08:19:31;107.30;;;7.77;;
3700;SDS011;1866;48.374;10.766;2023-04-27T08:21:58;103.50;;;7.70;;
3700;SDS011;1866;48.374;10.766;2023-04-27T08:24:25;103.77;;;7.27;;
3700;SDS011;1866;48.374;10.766;2023-04-27T08:26:52;104.17;;;7.53;;
3700;SDS011;1866;48.374;10.766;2023-04-27T08:29:19;116.10;;;7.57;;
3700;SDS011;1866;48.374;10.766;2023-04-27T08:31:46;103.87;;;7.60;;
3700;SDS011;1866;48.374;10.766;2023-04-27T08:34:14;122.63;;;8.67;;
3700;SDS011;1866;48.374;10.766;2023-04-27T08:36:41;104.93;;;7.17;;
3700;SDS011;1866;48.374;10.766;2023-04-27T08:39:08;102.70;;;7.43;;
3700;SDS011;1866;48.374;10.766;2023-04-27T08:41:35;101.57;;;6.60;;
3700;SDS011;1866;48.374;10.766;2023-04-27T08:44:07;102.03;;;7.10;;
3700;SDS011;1866;48.374;10.766;2023-04-27T08:46:33;103.20;;;6.47;;
3700;SDS011;1866;48.374;10.766;2023-04-27T08:49:02;104.00;;;7.10;;
3700;SDS011;1866;48.374;10.766;2023-04-27T08:51:32;107.10;;;7.33;;
3700;SDS011;1866;48.374;10.766;2023-04-27T08:53:59;103.10;;;7.20;;
3700;SDS011;1866;48.374;10.766;2023-04-27T08:56:27;103.90;;;7.80;;
3700;SDS011;1866;48.374;10.766;2023-04-27T08:58:55;103.77;;;7.97;;
3700;SDS011;1866;48.374;10.766;2023-04-27T09:01:23;104.17;;;7.40;;
3700;SDS011;1866;48.374;10.766;2023-04-27T09:03:54;101.57;;;6.43;;
3700;SDS011;1866;48.374;10.766;2023-04-27T09:06:28;105.73;;;7.60;;
3700;SDS011;1866;48.374;10.766;2023-04-27T09:08:57;104.50;;;7.30;;
3700;SDS011;1866;48.374;10.766;2023-04-27T09:11:28;101.77;;;6.70;;
3700;SDS011;1866;48.374;10.766;2023-04-27T09:13:57;109.30;;;8.57;;
3700;SDS011;1866;48.374;10.766;2023-04-27T09:16:25;102.10;;;7.13;;
3700;SDS011;1866;48.374;10.766;2023-04-27T09:18:53;103.77;;;6.97;;
3700;SDS011;1866;48.374;10.766;2023-04-27T09:21:21;105.07;;;7.33;;
3700;SDS011;1866;48.374;10.766;2023-04-27T09:23:48;102.87;;;7.00;;
3700;SDS011;1866;48.374;10.766;2023-04-27T09:26:19;104.03;;;6.87;;
3700;SDS011;1866;48.374;10.766;2023-04-27T09:28:48;100.73;;;6.77;;
3700;SDS011;1866;48.374;10.766;2023-04-27T09:31:16;102.13;;;6.47;;
3700;SDS011;1866;48.374;10.766;2023-04-27T09:33:43;103.70;;;6.50;;
3700;SDS011;1866;48.374;10.766;2023-04-27T09:36:11;102.20;;;6.07;;
3700;SDS011;1866;48.374;10.766;2023-04-27T09:38:39;102.90;;;6.20;;
3700;SDS011;1866;48.374;10.766;2023-04-27T09:41:06;101.40;;;6.20;;
3700;SDS011;1866;48.374;10.766;2023-04-27T09:43:35;102.37;;;6.20;;
3700;SDS011;1866;48.374;10.766;2023-04-27T09:46:03;103.57;;;6.87;;
3700;SDS011;1866;48.374;10.766;2023-04-27T09:48:30;105.63;;;6.13;;
3700;SDS011;1866;48.374;10.766;2023-04-27T09:50:57;101.70;;;6.10;;
3700;SDS011;1866;48.374;10.766;2023-04-27T09:53:25;99.47;;;5.60;;
3700;SDS011;1866;48.374;10.766;2023-04-27T09:55:59;104.47;;;5.90;;
3700;SDS011;1866;48.374;10.766;2023-04-27T10:01:38;100.80;;;5.90;;
3700;SDS011;1866;48.374;10.766;2023-04-27T10:07:12;99.87;;;5.63;;
3700;SDS011;1866;48.374;10.766;2023-04-27T10:09:41;100.37;;;6.27;;
3700;SDS011;1866;48.374;10.766;2023-04-27T10:12:16;103.80;;;5.53;;
3700;SDS011;1866;48.374;10.766;2023-04-27T10:14:49;99.93;;;5.23;;
3700;SDS011;1866;48.374;10.766;2023-04-27T10:17:17;101.00;;;6.47;;
3700;SDS011;1866;48.374;10.766;2023-04-27T10:19:51;99.80;;;5.50;;
3700;SDS011;1866;48.374;10.766;2023-04-27T10:22:20;103.00;;;5.70;;
3700;SDS011;1866;48.374;10.766;2023-04-27T10:24:47;99.97;;;5.27;;
3700;SDS011;1866;48.374;10.766;2023-04-27T10:27:16;101.10;;;5.40;;
3700;SDS011;1866;48.374;10.766;2023-04-27T10:29:46;101.00;;;5.90;;
3700;SDS011;1866;48.374;10.766;2023-04-27T10:32:19;100.40;;;5.83;;
3700;SDS011;1866;48.374;10.766;2023-04-27T10:34:47;100.60;;;6.00;;
3700;SDS011;1866;48.374;10.766;2023-04-27T10:37:15;101.30;;;5.80;;
3700;SDS011;1866;48.374;10.766;2023-04-27T10:39:44;100.40;;;6.00;;
3700;SDS011;1866;48.374;10.766;2023-04-27T10:42:13;103.00;;;6.27;;
3700;SDS011;1866;48.374;10.766;2023-04-27T10:44:54;100.57;;;5.60;;
3700;SDS011;1866;48.374;10.766;2023-04-27T10:47:22;98.67;;;5.40;;
3700;SDS011;1866;48.374;10.766;2023-04-27T10:49:51;106.88;;;5.90;;
3700;SDS011;1866;48.374;10.766;2023-04-27T10:52:19;98.97;;;5.37;;
3700;SDS011;1866;48.374;10.766;2023-04-27T10:54:45;98.67;;;5.20;;
3700;SDS011;1866;48.374;10.766;2023-04-27T10:57:12;102.10;;;5.30;;
3700;SDS011;1866;48.374;10.766;2023-04-27T10:59:46;103.13;;;5.50;;
3700;SDS011;1866;48.374;10.766;2023-04-27T11:02:16;100.17;;;5.73;;
3700;SDS011;1866;48.374;10.766;2023-04-27T11:04:50;99.13;;;5.23;;
3700;SDS011;1866;48.374;10.766;2023-04-27T11:07:22;99.67;;;5.30;;
3700;SDS011;1866;48.374;10.766;2023-04-27T11:09:49;98.63;;;5.17;;
3700;SDS011;1866;48.374;10.766;2023-04-27T11:12:16;99.50;;;5.33;;
3700;SDS011;1866;48.374;10.766;2023-04-27T11:14:43;98.87;;;5.00;;
3700;SDS011;1866;48.374;10.766;2023-04-27T11:17:10;103.73;;;6.20;;
3700;SDS011;1866;48.374;10.766;2023-04-27T11:19:45;98.90;;;5.67;;
3700;SDS011;1866;48.374;10.766;2023-04-27T11:22:12;99.60;;;5.23;;
3700;SDS011;1866;48.374;10.766;2023-04-27T11:24:45;99.00;;;5.10;;
3700;SDS011;1866;48.374;10.766;2023-04-27T11:27:13;99.87;;;5.40;;
3700;SDS011;1866;48.374;10.766;2023-04-27T11:29:40;101.63;;;5.50;;
3700;SDS011;1866;48.374;10.766;2023-04-27T11:32:07;99.03;;;5.27;;
3700;SDS011;1866;48.374;10.766;2023-04-27T11:34:33;99.60;;;5.53;;
3700;SDS011;1866;48.374;10.766;2023-04-27T11:37:04;102.37;;;5.83;;
3700;SDS011;1866;48.374;10.766;2023-04-27T11:39:32;99.57;;;5.50;;
3700;SDS011;1866;48.374;10.766;2023-04-27T11:42:13;102.63;;;5.80;;
3700;SDS011;1866;48.374;10.766;2023-04-27T11:44:42;99.00;;;5.53;;
3700;SDS011;1866;48.374;10.766;2023-04-27T11:47:14;99.77;;;5.83;;
3700;SDS011;1866;48.374;10.766;2023-04-27T11:49:45;99.37;;;5.70;;
3700;SDS011;1866;48.374;10.766;2023-04-27T11:52:13;99.47;;;5.30;;
3700;SDS011;1866;48.374;10.766;2023-04-27T11:54:45;100.57;;;6.13;;
3700;SDS011;1866;48.374;10.766;2023-04-27T11:57:13;98.50;;;5.00;;
3700;SDS011;1866;48.374;10.766;2023-04-27T11:59:40;102.37;;;6.80;;
3700;SDS011;1866;48.374;10.766;2023-04-27T12:02:07;98.17;;;5.10;;
3700;SDS011;1866;48.374;10.766;2023-04-27T12:04:34;103.73;;;5.97;;
3700;SDS011;1866;48.374;10.766;2023-04-27T12:07:01;106.83;;;6.37;;
3700;SDS011;1866;48.374;10.766;2023-04-27T12:09:30;98.77;;;5.10;;
3700;SDS011;1866;48.374;10.766;2023-04-27T12:11:57;99.80;;;5.17;;
3700;SDS011;1866;48.374;10.766;2023-04-27T12:14:24;99.17;;;5.70;;
3700;SDS011;1866;48.374;10.766;2023-04-27T12:16:52;99.30;;;5.10;;
3700;SDS011;1866;48.374;10.766;2023-04-27T12:19:18;99.43;;;5.40;;
3700;SDS011;1866;48.374;10.766;2023-04-27T12:21:48;99.53;;;5.60;;
3700;SDS011;1866;48.374;10.766;2023-04-27T12:24:15;102.17;;;5.80;;
3700;SDS011;1866;48.374;10.766;2023-04-27T12:26:43;100.20;;;5.53;;
3700;SDS011;1866;48.374;10.766;2023-04-27T12:29:10;101.03;;;5.40;;
3700;SDS011;1866;48.374;10.766;2023-04-27T12:31:37;100.57;;;5.10;;
3700;SDS011;1866;48.374;10.766;2023-04-27T12:34:04;99.83;;;5.60;;
3700;SDS011;1866;48.374;10.766;2023-04-27T12:36:31;99.20;;;5.43;;
3700;SDS011;1866;48.374;10.766;2023-04-27T12:38:59;99.37;;;5.40;;
3700;SDS011;1866;48.374;10.766;2023-04-27T12:41:38;102.37;;;6.60;;
3700;SDS011;1866;48.374;10.766;2023-04-27T12:44:07;102.40;;;6.33;;
3700;SDS011;1866;48.374;10.766;2023-04-27T12:46:33;102.10;;;5.70;;
3700;SDS011;1866;48.374;10.766;2023-04-27T12:49:00;101.40;;;6.00;;
3700;SDS011;1866;48.374;10.766;2023-04-27T12:51:27;100.63;;;5.60;;
3700;SDS011;1866;48.374;10.766;2023-04-27T12:53:54;102.70;;;5.20;;
3700;SDS011;1866;48.374;10.766;2023-04-27T12:56:21;99.37;;;5.17;;
3700;SDS011;1866;48.374;10.766;2023-04-27T12:58:48;98.63;;;5.20;;
3700;SDS011;1866;48.374;10.766;2023-04-27T13:01:17;101.00;;;5.57;;
3700;SDS011;1866;48.374;10.766;2023-04-27T13:03:48;97.97;;;5.47;;
3700;SDS011;1866;48.374;10.766;2023-04-27T13:06:17;98.07;;;5.30;;
3700;SDS011;1866;48.374;10.766;2023-04-27T13:08:44;104.57;;;5.70;;
3700;SDS011;1866;48.374;10.766;2023-04-27T13:11:10;101.40;;;5.80;;
3700;SDS011;1866;48.374;10.766;2023-04-27T13:13:37;99.80;;;5.37;;
3700;SDS011;1866;48.374;10.766;2023-04-27T13:16:05;99.77;;;5.43;;
3700;SDS011;1866;48.374;10.766;2023-04-27T13:18:33;98.60;;;5.07;;
3700;SDS011;1866;48.374;10.766;2023-04-27T13:21:01;99.00;;;5.37;;
3700;SDS011;1866;48.374;10.766;2023-04-27T13:23:29;98.33;;;5.43;;
3700;SDS011;1866;48.374;10.766;2023-04-27T13:25:56;97.23;;;4.83;;
3700;SDS011;1866;48.374;10.766;2023-04-27T13:28:23;101.50;;;5.73;;
3700;SDS011;1866;48.374;10.766;2023-04-27T13:30:49;98.37;;;4.70;;
3700;SDS011;1866;48.374;10.766;2023-04-27T13:33:17;99.77;;;5.43;;
3700;SDS011;1866;48.374;10.766;2023-04-27T13:35:45;99.70;;;5.27;;
3700;SDS011;1866;48.374;10.766;2023-04-27T13:38:12;99.47;;;5.30;;
3700;SDS011;1866;48.374;10.766;2023-04-27T13:40:39;97.93;;;4.87;;
3700;SDS011;1866;48.374;10.766;2023-04-27T13:43:05;100.30;;;5.50;;
3700;SDS011;1866;48.374;10.766;2023-04-27T13:45:32;100.67;;;5.43;;
3700;SDS011;1866;48.374;10.766;2023-04-27T13:47:59;98.00;;;5.17;;
3700;SDS011;1866;48.374;10.766;2023-04-27T13:50:26;100.50;;;4.90;;
3700;SDS011;1866;48.374;10.766;2023-04-27T13:52:54;100.33;;;5.37;;
3700;SDS011;1866;48.374;10.766;2023-04-27T13:55:21;101.10;;;5.83;;
3700;SDS011;1866;48.374;10.766;2023-04-27T13:57:48;97.17;;;5.27;;
3700;SDS011;1866;48.374;10.766;2023-04-27T14:00:15;97.87;;;5.20;;
3700;SDS011;1866;48.374;10.766;2023-04-27T14:02:42;97.97;;;4.90;;
3700;SDS011;1866;48.374;10.766;2023-04-27T14:05:09;100.57;;;5.20;;
3700;SDS011;1866;48.374;10.766;2023-04-27T14:07:36;98.47;;;5.07;;
3700;SDS011;1866;48.374;10.766;2023-04-27T14:10:04;99.10;;;4.83;;
3700;SDS011;1866;48.374;10.766;2023-04-27T14:12:32;98.67;;;4.83;;
3700;SDS011;1866;48.374;10.766;2023-04-27T14:14:59;102.60;;;5.67;;
3700;SDS011;1866;48.374;10.766;2023-04-27T14:17:26;97.90;;;5.40;;
3700;SDS011;1866;48.374;10.766;2023-04-27T14:19:53;97.97;;;4.97;;
3700;SDS011;1866;48.374;10.766;2023-04-27T14:22:20;98.37;;;4.90;;
3700;SDS011;1866;48.374;10.766;2023-04-27T14:24:47;99.27;;;5.23;;
3700;SDS011;1866;48.374;10.766;2023-04-27T14:27:15;100.13;;;5.73;;
3700;SDS011;1866;48.374;10.766;2023-04-27T14:29:42;98.17;;;4.90;;
3700;SDS011;1866;48.374;10.766;2023-04-27T14:32:08;100.30;;;5.67;;
3700;SDS011;1866;48.374;10.766;2023-04-27T14:34:36;101.57;;;5.30;;
3700;SDS011;1866;48.374;10.766;2023-04-27T14:37:03;96.77;;;5.10;;
3700;SDS011;1866;48.374;10.766;2023-04-27T14:39:30;97.23;;;5.00;;
3700;SDS011;1866;48.374;10.766;2023-04-27T14:41:57;101.10;;;5.70;;
3700;SDS011;1866;48.374;10.766;2023-04-27T14:44:25;98.30;;;4.97;;
3700;SDS011;1866;48.374;10.766;2023-04-27T14:46:52;101.17;;;5.43;;
3700;SDS011;1866;48.374;10.766;2023-04-27T14:49:19;98.30;;;5.13;;